createdAt,value
2019-05-28T00:00:55.042Z,15.22
2019-05-28T00:03:27.742Z,15.11
2019-05-28T00:06:00.599Z,15.11
2019-05-28T00:08:33.331Z,15.12
2019-05-28T00:11:05.776Z,14.99
2019-05-28T00:13:38.297Z,14.99
2019-05-28T00:16:11.341Z,15.07
2019-05-28T00:18:43.771Z,14.98
2019-05-28T00:21:15.474Z,14.87
2019-05-28T00:23:47.790Z,14.82
2019-05-28T00:26:20.384Z,14.78
2019-05-28T00:28:52.817Z,14.73
2019-05-28T00:31:25.486Z,14.68
2019-05-28T00:35:46.282Z,14.67
2019-05-28T00:38:20.295Z,14.55
2019-05-28T00:40:52.999Z,14.49
2019-05-28T00:43:25.794Z,14.49
2019-05-28T00:45:58.378Z,14.53
2019-05-28T00:48:31.311Z,14.48
2019-05-28T00:51:03.666Z,14.33
2019-05-28T00:53:36.304Z,14.33
2019-05-28T00:56:09.883Z,14.63
2019-05-28T00:58:42.914Z,14.63
2019-05-28T01:01:15.574Z,14.62
2019-05-28T01:03:48.296Z,14.66
2019-05-28T01:06:20.834Z,14.68
2019-05-28T01:08:53.368Z,14.68
2019-05-28T01:11:25.671Z,14.81
2019-05-28T01:13:58.187Z,14.81
2019-05-28T01:16:32.719Z,14.86
2019-05-28T01:19:05.290Z,14.89
2019-05-28T01:21:37.721Z,14.90
2019-05-28T01:24:10.285Z,14.90
2019-05-28T01:26:42.691Z,14.98
2019-05-28T01:29:15.392Z,14.98
2019-05-28T01:31:48.077Z,14.90
2019-05-28T01:34:20.444Z,14.90
2019-05-28T01:36:53.807Z,14.99
2019-05-28T01:39:26.281Z,15.02
2019-05-28T01:41:58.697Z,15.01
2019-05-28T01:44:31.050Z,15.04
2019-05-28T01:47:03.534Z,15.06
2019-05-28T01:49:35.979Z,15.11
2019-05-28T01:52:08.579Z,15.11
2019-05-28T01:54:40.950Z,15.06
2019-05-28T01:57:14.758Z,15.03
2019-05-28T01:59:47.289Z,15.05
2019-05-28T02:02:20.965Z,15.11
2019-05-28T02:04:53.408Z,15.11
2019-05-28T02:07:25.886Z,15.16
2019-05-28T02:09:58.618Z,15.18
2019-05-28T02:12:31.044Z,15.19
2019-05-28T02:15:03.527Z,15.19
2019-05-28T02:17:36.234Z,15.20
2019-05-28T02:20:11.563Z,15.24
2019-05-28T02:22:44.283Z,15.27
2019-05-28T02:25:18.892Z,15.18
2019-05-28T02:27:51.399Z,15.18
2019-05-28T02:30:25.701Z,15.21
2019-05-28T02:32:58.043Z,15.09
2019-05-28T02:35:30.470Z,14.81
2019-05-28T02:38:03.013Z,14.72
2019-05-28T02:40:35.358Z,14.63
2019-05-28T02:43:08.333Z,14.65
2019-05-28T02:45:40.891Z,14.74
2019-05-28T02:48:13.450Z,14.74
2019-05-28T02:51:00.846Z,14.71
2019-05-28T02:53:34.419Z,14.59
2019-05-28T02:56:06.814Z,14.51
2019-05-28T02:58:39.780Z,14.46
2019-05-28T03:01:11.341Z,14.36
2019-05-28T03:03:45.029Z,14.32
2019-05-28T03:06:18.554Z,14.06
2019-05-28T03:08:53.590Z,13.92
2019-05-28T03:11:26.868Z,13.88
2019-05-28T03:13:59.296Z,13.71
2019-05-28T03:16:38.455Z,13.40
2019-05-28T03:19:11.475Z,13.40
2019-05-28T03:21:44.320Z,13.60
2019-05-28T03:24:20.643Z,13.52
2019-05-28T03:26:53.316Z,13.52
2019-05-28T03:29:26.424Z,13.54
2019-05-28T03:32:08.885Z,13.54
2019-05-28T03:34:33.561Z,13.56
2019-05-28T03:37:06.756Z,13.47
2019-05-28T03:39:42.875Z,13.42
2019-05-28T03:42:15.300Z,13.47
2019-05-28T03:44:47.770Z,13.31
2019-05-28T03:47:21.313Z,13.24
2019-05-28T03:49:53.641Z,13.20
2019-05-28T03:52:26.295Z,13.20
2019-05-28T03:54:58.780Z,13.24
2019-05-28T03:57:31.353Z,13.24
2019-05-28T04:00:03.737Z,13.41
2019-05-28T04:02:37.281Z,13.41
2019-05-28T04:05:11.354Z,13.36
2019-05-28T04:07:43.655Z,13.38
2019-05-28T04:10:16.399Z,13.38
2019-05-28T04:12:49.094Z,13.29
2019-05-28T04:15:22.308Z,13.49
2019-05-28T04:17:54.887Z,13.40
2019-05-28T04:20:27.803Z,13.40
2019-05-28T04:23:00.294Z,13.62
2019-05-28T04:25:33.025Z,13.59
2019-05-28T04:28:10.405Z,13.57
2019-05-28T04:30:44.286Z,13.60
2019-05-28T04:33:16.690Z,13.76
2019-05-28T04:35:49.292Z,13.76
2019-05-28T04:38:22.277Z,13.78
2019-05-28T04:40:57.046Z,13.51
2019-05-28T04:43:30.666Z,13.51
2019-05-28T04:46:03.279Z,13.58
2019-05-28T04:48:35.607Z,13.62
2019-05-28T04:51:08.058Z,13.62
2019-05-28T04:53:40.586Z,13.52
2019-05-28T04:56:13.296Z,13.37
2019-05-28T04:58:45.902Z,13.32
2019-05-28T05:01:24.029Z,13.32
2019-05-28T05:03:59.552Z,13.42
2019-05-28T05:06:35.161Z,13.40
2019-05-28T05:09:09.564Z,13.43
2019-05-28T05:11:43.015Z,13.40
2019-05-28T05:14:15.508Z,13.38
2019-05-28T05:16:47.944Z,13.33
2019-05-28T05:19:22.281Z,13.22
2019-05-28T05:21:54.848Z,13.57
2019-05-28T05:24:28.566Z,13.57
2019-05-28T05:27:01.049Z,13.28
2019-05-28T05:29:33.872Z,13.19
2019-05-28T05:32:07.462Z,13.43
2019-05-28T05:34:40.167Z,13.38
2019-05-28T05:37:12.676Z,13.63
2019-05-28T05:39:48.747Z,13.70
2019-05-28T05:42:19.622Z,13.64
2019-05-28T05:44:52.880Z,13.37
2019-05-28T05:47:25.799Z,13.54
2019-05-28T05:49:58.532Z,13.53
2019-05-28T05:52:30.975Z,13.70
2019-05-28T05:55:03.426Z,13.72
2019-05-28T05:57:35.999Z,13.88
2019-05-28T06:00:11.683Z,13.82
2019-05-28T06:02:44.819Z,14.08
2019-05-28T06:05:17.623Z,14.46
2019-05-28T06:07:50.336Z,14.53
2019-05-28T06:10:22.695Z,14.50
2019-05-28T06:12:57.693Z,14.36
2019-05-28T06:15:30.302Z,14.63
2019-05-28T06:18:03.315Z,14.07
2019-05-28T06:20:36.366Z,14.07
2019-05-28T06:23:10.571Z,13.76
2019-05-28T06:25:45.802Z,13.76
2019-05-28T06:28:18.351Z,13.92
2019-05-28T06:30:51.265Z,14.15
2019-05-28T06:33:23.418Z,13.79
2019-05-28T06:35:55.531Z,13.56
2019-05-28T06:38:28.849Z,13.94
2019-05-28T06:41:01.498Z,13.94
2019-05-28T06:43:33.363Z,14.11
2019-05-28T06:46:06.277Z,14.22
2019-05-28T06:48:38.239Z,13.79
2019-05-28T06:51:12.325Z,13.79
2019-05-28T06:53:44.754Z,13.80
2019-05-28T06:56:16.579Z,13.80
2019-05-28T06:58:48.883Z,13.89
2019-05-28T07:01:23.348Z,13.60
2019-05-28T07:04:12.481Z,13.81
2019-05-28T07:06:31.324Z,13.81
2019-05-28T07:09:04.386Z,13.82
2019-05-28T07:11:37.034Z,13.69
2019-05-28T07:14:10.822Z,13.75
2019-05-28T07:16:52.660Z,13.84
2019-05-28T07:19:24.618Z,13.80
2019-05-28T07:21:53.808Z,13.95
2019-05-28T07:24:26.718Z,13.73
2019-05-28T07:26:59.317Z,13.92
2019-05-28T07:29:32.126Z,14.23
2019-05-28T07:32:04.737Z,14.28
2019-05-28T07:34:40.292Z,14.36
2019-05-28T07:39:47.774Z,14.28
2019-05-28T07:42:32.349Z,14.30
2019-05-28T07:44:55.935Z,14.22
2019-05-28T07:47:28.415Z,14.26
2019-05-28T07:50:00.760Z,14.18
2019-05-28T07:52:33.486Z,13.94
2019-05-28T07:55:06.758Z,13.82
2019-05-28T07:57:39.372Z,14.09
2019-05-28T08:00:15.763Z,14.08
2019-05-28T08:02:48.528Z,13.95
2019-05-28T08:05:21.291Z,13.98
2019-05-28T08:07:53.925Z,13.68
2019-05-28T08:10:29.248Z,13.73
2019-05-28T08:13:06.847Z,14.13
2019-05-28T08:15:39.385Z,14.13
2019-05-28T08:18:11.825Z,13.95
2019-05-28T08:20:44.394Z,13.90
2019-05-28T08:23:17.281Z,13.90
2019-05-28T08:25:50.370Z,14.11
2019-05-28T08:28:23.881Z,14.22
2019-05-28T08:31:14.901Z,14.22
2019-05-28T08:33:36.335Z,14.56
2019-05-28T08:36:10.052Z,14.70
2019-05-28T08:38:42.563Z,14.70
2019-05-28T08:41:15.279Z,15.04
2019-05-28T08:43:47.016Z,15.99
2019-05-28T08:46:19.886Z,15.99
2019-05-28T08:48:54.298Z,15.38
2019-05-28T08:51:26.682Z,15.60
2019-05-28T08:54:02.322Z,14.88
2019-05-28T08:56:35.343Z,14.82
2019-05-28T08:59:10.662Z,15.35
2019-05-28T09:01:43.463Z,15.35
2019-05-28T09:04:16.325Z,15.71
2019-05-28T09:06:48.766Z,15.48
2019-05-28T09:09:21.338Z,15.48
2019-05-28T09:11:54.439Z,15.74
2019-05-28T09:14:53.863Z,15.20
2019-05-28T09:17:05.392Z,15.27
2019-05-28T09:19:38.315Z,15.55
2019-05-28T09:22:24.751Z,15.04
2019-05-28T09:24:45.298Z,15.04
2019-05-28T09:27:18.465Z,15.83
2019-05-28T09:29:51.293Z,15.83
2019-05-28T09:32:24.672Z,15.53
2019-05-28T09:34:57.314Z,15.91
2019-05-28T09:37:29.868Z,16.63
2019-05-28T09:40:03.981Z,16.63
2019-05-28T09:42:36.634Z,15.96
2019-05-28T09:45:22.701Z,16.16
2019-05-28T09:47:45.486Z,16.00
2019-05-28T09:50:30.778Z,16.13
2019-05-28T09:52:57.301Z,14.97
2019-05-28T09:55:30.086Z,15.46
2019-05-28T09:58:02.640Z,15.46
2019-05-28T10:00:37.744Z,14.14
2019-05-28T10:03:10.354Z,13.81
2019-05-28T10:05:58.334Z,14.04
2019-05-28T10:08:17.369Z,14.04
2019-05-28T10:10:51.119Z,15.09
2019-05-28T10:13:38.196Z,15.09
2019-05-28T10:15:58.705Z,15.98
2019-05-28T10:18:31.315Z,16.84
2019-05-28T10:21:17.740Z,17.38
2019-05-28T10:23:37.815Z,18.00
2019-05-28T10:26:10.331Z,18.12
2019-05-28T10:28:41.924Z,18.39
2019-05-28T10:31:14.429Z,18.39
2019-05-28T10:33:47.530Z,18.74
2019-05-28T10:36:35.037Z,18.51
2019-05-28T10:38:55.285Z,18.60
2019-05-28T10:41:27.833Z,19.09
2019-05-28T10:44:00.416Z,19.49
2019-05-28T10:46:33.049Z,19.27
2019-05-28T10:49:06.019Z,19.22
2019-05-28T10:51:38.520Z,19.44
2019-05-28T10:54:11.628Z,19.26
2019-05-28T10:56:44.072Z,19.21
2019-05-28T10:59:18.337Z,18.86
2019-05-28T11:01:50.842Z,19.42
2019-05-28T11:04:23.572Z,19.42
2019-05-28T11:06:56.277Z,19.34
2019-05-28T11:09:28.307Z,19.64
2019-05-28T11:12:00.346Z,19.32
2019-05-28T11:14:32.663Z,19.79
2019-05-28T11:17:08.288Z,19.79
2019-05-28T11:19:40.825Z,20.15
2019-05-28T11:22:13.344Z,20.15
2019-05-28T11:24:45.687Z,20.91
2019-05-28T11:27:18.298Z,19.79
2019-05-28T11:29:52.326Z,20.14
2019-05-28T11:32:25.671Z,20.14
2019-05-28T11:34:58.292Z,20.07
2019-05-28T11:37:30.693Z,20.62
2019-05-28T11:40:04.771Z,20.62
2019-05-28T11:42:39.899Z,20.74
2019-05-28T11:45:15.578Z,20.93
2019-05-28T11:47:50.879Z,20.79
2019-05-28T11:50:25.409Z,21.51
2019-05-28T11:52:58.289Z,21.46
2019-05-28T11:55:33.371Z,21.07
2019-05-28T11:58:07.425Z,21.33
2019-05-28T12:00:39.971Z,21.33
2019-05-28T12:03:12.566Z,20.65
2019-05-28T12:05:45.012Z,21.12
2019-05-28T12:08:17.989Z,21.09
2019-05-28T12:10:50.507Z,21.53
2019-05-28T12:13:22.868Z,21.74
2019-05-28T12:15:56.291Z,21.52
2019-05-28T12:18:28.854Z,22.18
2019-05-28T12:21:01.342Z,22.18
2019-05-28T12:23:33.238Z,22.31
2019-05-28T12:26:05.551Z,22.54
2019-05-28T12:28:40.585Z,23.25
2019-05-28T12:31:14.602Z,24.78
2019-05-28T12:33:46.246Z,24.94
2019-05-28T12:36:18.657Z,25.32
2019-05-28T12:38:51.083Z,25.32
2019-05-28T12:44:08.304Z,25.66
2019-05-28T12:46:39.915Z,26.24
2019-05-28T12:49:13.939Z,26.24
2019-05-28T12:51:45.427Z,26.72
2019-05-28T12:54:20.099Z,25.71
2019-05-28T12:56:51.623Z,25.71
2019-05-28T12:59:25.476Z,24.19
2019-05-28T13:01:57.800Z,24.31
2019-05-28T13:04:30.307Z,23.31
2019-05-28T13:07:02.941Z,23.16
2019-05-28T13:09:35.638Z,23.16
2019-05-28T13:12:09.708Z,22.76
2019-05-28T13:14:42.314Z,22.76
2019-05-28T13:17:14.683Z,23.42
2019-05-28T13:19:50.313Z,23.56
2019-05-28T13:22:24.398Z,24.17
2019-05-28T13:24:59.107Z,24.17
2019-05-28T13:27:31.746Z,24.28
2019-05-28T13:30:06.384Z,25.04
2019-05-28T13:32:39.325Z,26.02
2019-05-28T13:35:15.562Z,27.55
2019-05-28T13:37:50.425Z,27.55
2019-05-28T13:40:29.009Z,28.22
2019-05-28T13:43:00.741Z,27.53
2019-05-28T13:45:33.343Z,27.88
2019-05-28T13:48:07.635Z,26.48
2019-05-28T13:50:40.285Z,27.22
2019-05-28T13:53:12.942Z,25.11
2019-05-28T13:55:45.283Z,25.11
2019-05-28T13:58:17.676Z,30.13
2019-05-28T14:00:50.288Z,30.13
2019-05-28T14:03:22.742Z,29.75
2019-05-28T14:05:58.155Z,29.75
2019-05-28T14:08:45.987Z,28.81
2019-05-28T14:11:05.745Z,25.23
2019-05-28T14:13:38.518Z,25.23
2019-05-28T14:16:12.440Z,24.59
2019-05-28T14:18:44.982Z,24.11
2019-05-28T14:21:17.489Z,23.70
2019-05-28T14:23:50.036Z,24.02
2019-05-28T14:26:22.645Z,24.39
2019-05-28T14:28:57.032Z,23.87
2019-05-28T14:31:29.500Z,23.51
2019-05-28T14:34:02.050Z,23.91
2019-05-28T14:36:34.663Z,22.92
2019-05-28T14:39:12.314Z,23.10
2019-05-28T14:41:43.846Z,24.71
2019-05-28T14:44:16.324Z,24.71
2019-05-28T14:46:49.055Z,24.06
2019-05-28T14:49:21.683Z,24.06
2019-05-28T14:51:55.658Z,26.41
2019-05-28T14:54:28.050Z,25.66
2019-05-28T14:57:00.476Z,25.70
2019-05-28T14:59:33.012Z,26.06
2019-05-28T15:02:53.310Z,27.98
2019-05-28T15:05:27.377Z,28.26
2019-05-28T15:07:59.719Z,26.91
2019-05-28T15:10:32.368Z,26.91
2019-05-28T15:13:04.729Z,25.33
2019-05-28T15:15:37.360Z,23.99
2019-05-28T15:18:09.928Z,23.77
2019-05-28T15:20:44.026Z,23.97
2019-05-28T15:23:16.367Z,22.87
2019-05-28T15:25:50.442Z,21.27
2019-05-28T15:28:22.728Z,21.27
2019-05-28T15:30:55.584Z,21.45
2019-05-28T15:33:28.301Z,22.36
2019-05-28T15:36:01.960Z,22.38
2019-05-28T15:38:34.605Z,22.38
2019-05-28T15:41:07.290Z,22.08
2019-05-28T15:43:39.754Z,21.36
2019-05-28T15:46:16.321Z,21.36
2019-05-28T15:48:48.721Z,22.77
2019-05-28T15:51:21.353Z,22.77
2019-05-28T15:53:53.718Z,23.43
2019-05-28T15:56:27.746Z,23.43
2019-05-28T15:59:00.448Z,23.82
2019-05-28T16:01:33.997Z,22.42
2019-05-28T16:04:06.512Z,22.27
2019-05-28T16:06:40.468Z,21.67
2019-05-28T16:09:13.097Z,21.77
2019-05-28T16:11:45.720Z,21.64
2019-05-28T16:14:18.311Z,21.64
2019-05-28T16:16:54.294Z,22.68
2019-05-28T16:23:07.041Z,22.94
2019-05-28T16:25:41.570Z,22.80
2019-05-28T16:28:14.792Z,22.45
2019-05-28T16:30:47.383Z,21.57
2019-05-28T16:33:19.085Z,21.42
2019-05-28T16:35:50.641Z,21.42
2019-05-28T16:38:22.252Z,21.36
2019-05-28T16:40:54.655Z,21.14
2019-05-28T16:43:28.320Z,21.27
2019-05-28T16:46:00.850Z,21.66
2019-05-28T16:48:33.740Z,21.66
2019-05-28T16:51:06.302Z,21.73
2019-05-28T16:53:38.855Z,21.81
2019-05-28T16:56:13.347Z,21.81
2019-05-28T16:58:45.582Z,21.29
2019-05-28T17:01:22.339Z,21.65
2019-05-28T17:03:52.414Z,21.44
2019-05-28T17:06:25.305Z,21.01
2019-05-28T17:08:58.769Z,20.95
2019-05-28T17:11:31.351Z,20.49
2019-05-28T17:14:03.555Z,20.38
2019-05-28T17:16:36.075Z,20.21
2019-05-28T17:19:08.897Z,20.28
2019-05-28T17:22:56.368Z,20.25
2019-05-28T17:25:29.088Z,20.05
2019-05-28T17:28:02.564Z,20.01
2019-05-28T17:30:36.325Z,19.80
2019-05-28T17:33:08.719Z,19.64
2019-05-28T17:35:41.368Z,19.64
2019-05-28T17:38:13.901Z,19.14
2019-05-28T17:40:48.792Z,19.14
2019-05-28T17:43:20.450Z,19.45
2019-05-28T17:45:53.300Z,19.57
2019-05-28T17:48:25.885Z,18.79
2019-05-28T17:50:58.754Z,18.88
2019-05-28T17:53:31.311Z,18.88
2019-05-28T17:56:07.698Z,18.79
2019-05-28T17:58:38.554Z,18.79
2019-05-28T18:01:11.302Z,18.33
2019-05-28T18:03:43.894Z,18.67
2019-05-28T18:06:16.375Z,18.67
2019-05-28T18:08:50.465Z,18.51
2019-05-28T18:11:23.075Z,18.51
2019-05-28T18:13:55.776Z,18.57
2019-05-28T18:16:29.023Z,18.43
2019-05-28T18:19:01.634Z,18.43
2019-05-28T18:21:36.329Z,18.30
2019-05-28T18:24:09.311Z,18.18
2019-05-28T18:26:41.753Z,17.89
2019-05-28T18:29:14.364Z,17.89
2019-05-28T18:31:46.649Z,17.61
2019-05-28T18:34:19.321Z,17.61
2019-05-28T18:36:52.306Z,17.37
2019-05-28T18:39:25.766Z,17.08
2019-05-28T18:42:00.661Z,17.08
2019-05-28T18:44:34.804Z,17.35
2019-05-28T18:47:07.375Z,17.30
2019-05-28T18:49:40.459Z,17.17
2019-05-28T18:52:12.877Z,17.20
2019-05-28T18:54:45.532Z,17.21
2019-05-28T18:57:18.390Z,16.70
2019-05-28T18:59:50.752Z,16.41
2019-05-28T19:02:23.328Z,16.19
2019-05-28T19:04:55.813Z,15.89
2019-05-28T19:07:29.746Z,15.34
2019-05-28T19:10:02.429Z,15.16
2019-05-28T19:12:35.277Z,15.28
2019-05-28T19:15:13.530Z,15.13
2019-05-28T19:17:46.293Z,15.13
2019-05-28T19:21:17.323Z,15.31
2019-05-28T19:23:51.364Z,15.26
2019-05-28T19:26:24.053Z,15.26
2019-05-28T19:28:59.802Z,15.08
2019-05-28T19:31:33.303Z,15.01
2019-05-28T19:34:06.800Z,14.92
2019-05-28T19:36:39.575Z,14.92
2019-05-28T19:39:12.339Z,14.80
2019-05-28T19:41:54.011Z,14.78
2019-05-28T19:44:21.337Z,14.82
2019-05-28T19:46:53.374Z,14.76
2019-05-28T19:49:26.001Z,14.29
2019-05-28T19:51:59.771Z,14.52
2019-05-28T19:54:33.348Z,14.52
2019-05-28T19:57:07.082Z,14.19
2019-05-28T19:59:39.628Z,14.19
2019-05-28T20:02:12.451Z,14.16
2019-05-28T20:04:45.278Z,14.00
2019-05-28T20:07:18.317Z,14.14
2019-05-28T20:09:50.904Z,14.14
2019-05-28T20:12:23.455Z,14.01
2019-05-28T20:15:47.487Z,14.08
2019-05-28T20:18:26.645Z,14.04
2019-05-28T20:20:54.506Z,14.05
2019-05-28T20:23:27.889Z,14.03
2019-05-28T20:26:00.380Z,14.09
2019-05-28T20:28:33.761Z,14.17
2019-05-28T20:31:06.686Z,14.23
2019-05-28T20:33:40.437Z,14.25
2019-05-28T20:36:12.330Z,14.18
2019-05-28T20:38:46.419Z,14.20
2019-05-28T20:41:18.230Z,14.27
2019-05-28T20:43:50.571Z,14.27
2019-05-28T20:46:25.088Z,14.29
2019-05-28T20:49:00.536Z,14.33
2019-05-28T20:51:35.901Z,14.33
2019-05-28T20:54:11.904Z,14.29
2019-05-28T20:56:48.190Z,14.21
2019-05-28T20:59:19.310Z,14.22
2019-05-28T21:01:51.809Z,14.24
2019-05-28T21:04:24.370Z,14.24
2019-05-28T21:06:56.821Z,14.23
2019-05-28T21:09:30.390Z,14.20
2019-05-28T21:12:04.569Z,14.22
2019-05-28T21:14:37.363Z,14.21
2019-05-28T21:17:10.295Z,14.12
2019-05-28T21:19:43.386Z,14.12
2019-05-28T21:22:26.127Z,14.05
2019-05-28T21:24:51.981Z,13.88
2019-05-28T21:27:24.538Z,13.88
2019-05-28T21:29:56.911Z,13.96
2019-05-28T21:32:32.391Z,13.99
2019-05-28T21:35:06.325Z,14.24
2019-05-28T21:37:38.791Z,14.28
2019-05-28T21:40:13.354Z,14.28
2019-05-28T21:42:58.448Z,14.38
2019-05-28T21:45:20.711Z,14.39
2019-05-28T21:47:54.378Z,14.46
2019-05-28T21:50:27.304Z,14.46
2019-05-28T21:53:01.647Z,14.44
2019-05-28T21:55:34.296Z,14.43
2019-05-28T21:58:07.017Z,14.33
2019-05-28T22:03:44.753Z,14.21
2019-05-28T22:06:17.614Z,14.11
2019-05-28T22:08:51.367Z,13.95
2019-05-28T22:11:25.425Z,13.83
2019-05-28T22:13:58.112Z,13.72
2019-05-28T22:16:32.301Z,13.62
2019-05-28T22:19:04.683Z,13.49
2019-05-28T22:21:38.478Z,13.39
2019-05-28T22:24:11.464Z,13.37
2019-05-28T22:26:45.313Z,13.18
2019-05-28T22:29:17.870Z,13.15
2019-05-28T22:31:50.811Z,13.02
2019-05-28T22:34:23.495Z,12.99
2019-05-28T22:36:58.364Z,12.99
2019-05-28T22:39:31.796Z,12.75
2019-05-28T22:42:05.744Z,12.75
2019-05-28T22:44:38.624Z,12.91
2019-05-28T22:47:11.320Z,12.89
2019-05-28T22:49:44.040Z,12.72
2019-05-28T22:55:23.361Z,12.68
2019-05-28T22:58:00.321Z,12.61
2019-05-28T23:00:34.376Z,12.61
2019-05-28T23:03:09.212Z,12.55
2019-05-28T23:05:41.955Z,12.55
2019-05-28T23:08:17.566Z,12.48
2019-05-28T23:10:50.758Z,12.45
2019-05-28T23:13:28.449Z,12.38
2019-05-28T23:16:06.209Z,12.34
2019-05-28T23:18:42.917Z,12.05
2019-05-28T23:21:16.392Z,12.05
2019-05-28T23:23:51.800Z,12.21
2019-05-28T23:26:24.522Z,12.15
2019-05-28T23:28:58.552Z,12.12
2019-05-28T23:31:33.593Z,12.06
2019-05-28T23:34:08.401Z,12.05
2019-05-28T23:36:40.503Z,12.03
2019-05-28T23:39:13.263Z,11.97
2019-05-28T23:41:47.738Z,12.00
2019-05-28T23:44:20.296Z,11.91
2019-05-28T23:46:52.849Z,11.81
2019-05-28T23:49:25.405Z,11.81
2019-05-28T23:51:57.059Z,11.91
2019-05-28T23:54:29.427Z,11.91
2019-05-28T23:57:02.342Z,11.85
2019-05-28T23:59:34.708Z,11.94
